Time;durP1;ratioP1;P1;durP2;ratioP2;P2;SDS_P1;SDS_P2;PMS_P1;PMS_P2;Temp;Humidity;BMP_temperature;BMP_pressure;BME280_temperature;BME280_humidity;BME280_pressure;Samples;Min_cycle;Max_cycle;Signal;HPM_P1;HPM_P2
2023/08/25 06:21:33;;;;;;;12.90;9.50;;;;;;;18.41;100.00;98680.12;265475;1301;545856;-85
2023/08/25 06:35:29;;;;;;;13.00;8.60;;;;;;;18.55;100.00;98692.98;271328;1279;126900;-86
2023/08/25 06:41:31;;;;;;;14.60;8.10;;;;;;;18.65;100.00;98691.86;273283;1267;22476;-86
2023/08/25 06:47:34;;;;;;;14.40;8.50;;;;;;;18.77;100.00;98688.38;273555;1269;23499;-86
2023/08/25 06:53:35;;;;;;;16.60;9.60;;;;;;;18.95;100.00;98675.54;272843;1269;22170;-86
2023/08/25 06:59:38;;;;;;;15.90;9.80;;;;;;;19.21;100.00;98655.45;271828;1267;22445;-86
2023/08/25 07:05:40;;;;;;;16.00;7.90;;;;;;;19.50;100.00;98647.00;271308;1266;23182;-85
2023/08/25 07:11:42;;;;;;;15.80;9.00;;;;;;;19.79;100.00;98644.98;271016;1267;23347;-85
2023/08/25 07:17:44;;;;;;;13.70;8.30;;;;;;;20.07;100.00;98648.92;270989;1267;22576;-86
2023/08/25 07:23:46;;;;;;;13.60;8.40;;;;;;;20.42;100.00;98644.31;273581;1267;22400;-86
2023/08/25 07:29:53;;;;;;;13.00;8.40;;;;;;;20.76;100.00;98633.40;273783;1268;22180;-86
2023/08/25 07:35:57;;;;;;;13.70;7.50;;;;;;;21.02;100.00;98647.85;273535;1267;22425;-86
2023/08/25 07:41:59;;;;;;;10.90;7.40;;;;;;;21.17;100.00;98660.01;273582;1267;22292;-85
2023/08/25 07:48:01;;;;;;;17.70;9.50;;;;;;;21.34;100.00;98658.51;272347;1267;22268;-86
2023/08/25 07:54:04;;;;;;;14.80;7.90;;;;;;;21.43;100.00;98663.97;273245;1267;22199;-86
2023/08/25 08:00:12;;;;;;;15.40;8.50;;;;;;;21.49;100.00;98670.19;273705;1267;22454;-85
2023/08/25 08:06:14;;;;;;;15.80;9.10;;;;;;;21.52;100.00;98672.77;273687;1258;22288;-87
2023/08/25 08:12:16;;;;;;;19.20;10.00;;;;;;;21.46;100.00;98674.17;273419;1267;22995;-85
2023/08/25 08:18:18;;;;;;;24.50;10.10;;;;;;;21.41;100.00;98684.90;273306;1267;22520;-85
2023/08/25 08:24:23;;;;;;;20.60;9.10;;;;;;;21.44;100.00;98696.06;271172;1267;23519;-85
2023/08/25 08:30:25;;;;;;;19.10;10.40;;;;;;;21.55;100.00;98698.45;271756;1267;22451;-86
2023/08/25 08:36:27;;;;;;;23.70;9.90;;;;;;;21.69;100.00;98686.99;272515;1267;22502;-85
2023/08/25 08:42:30;;;;;;;16.00;9.70;;;;;;;21.74;100.00;98684.34;273549;1267;23071;-85
2023/08/25 08:48:33;;;;;;;20.70;10.00;;;;;;;21.76;100.00;98685.06;273637;1267;22386;-88
2023/08/25 08:54:37;;;;;;;21.40;10.00;;;;;;;21.86;100.00;98682.49;273623;1267;22433;-86
2023/08/25 09:00:40;;;;;;;22.50;10.80;;;;;;;21.99;100.00;98674.20;273493;1267;22471;-88
2023/08/25 09:06:43;;;;;;;21.10;10.00;;;;;;;22.31;100.00;98677.30;273536;1267;22284;-86
2023/08/25 09:14:03;;;;;;;;;;;;;;;;;;;;;
2023/08/25 09:20:25;;;;;;;11.10;8.10;;;;;;;23.81;100.00;98667.14;272175;1267;22202;-86
2023/08/25 09:26:38;;;;;;;13.60;7.40;;;;;;;24.71;100.00;98672.09;273651;1267;22372;-87
2023/08/25 09:32:42;;;;;;;8.50;7.00;;;;;;;25.64;100.00;98676.73;273314;1267;22199;-87
2023/08/25 09:39:09;;;;;;;;;;;;;;;;;;;;;
2023/08/25 09:45:39;;;;;;;;;;;;;;;27.30;96.79;98666.75;273975;1264;22308;-87
2023/08/25 09:51:51;;;;;;;10.60;6.20;;;;;;;27.81;93.42;98658.25;272952;1268;22524;-88
2023/08/25 09:58:03;;;;;;;;;;;;;;;;;;;;;
2023/08/25 10:04:06;;;;;;;7.50;5.20;;;;;;;28.26;88.15;98652.60;273483;1268;22358;-86
2023/08/25 10:10:20;;;;;;;12.10;5.90;;;;;;;28.78;85.90;98651.45;273247;1269;22687;-85
2023/08/25 10:16:38;;;;;;;;;;;;;;;;;;;;;
2023/08/25 10:23:09;;;;;;;10.50;5.10;;;;;;;30.22;78.62;98646.89;271132;1275;22588;-85
2023/08/25 10:29:15;;;;;;;6.10;5.20;;;;;;;30.66;75.08;98637.27;271318;1269;23213;-86
2023/08/25 10:35:41;;;;;;;;;;;;;;;30.89;72.05;98623.05;272872;1272;22505;-87
2023/08/25 10:41:44;;;;;;;6.90;5.50;;;;;;;31.01;69.68;98616.82;272833;1272;22410;-89
2023/08/25 10:47:49;;;;;;;7.10;5.60;;;;;;;31.14;67.15;98615.36;271899;1271;22958;-88
2023/08/25 10:53:54;;;;;;;8.00;5.50;;;;;;;31.22;64.92;98612.99;272781;1268;22657;-87
2023/08/25 10:59:57;;;;;;;11.50;5.70;;;;;;;31.21;64.61;98610.22;272726;1269;22316;-88
2023/08/25 11:06:43;;;;;;;8.10;5.90;;;;;;;31.21;62.48;98607.77;272387;1269;22648;-86
2023/08/25 11:12:47;;;;;;;;;;;;;;;31.34;62.62;98613.77;273861;1268;22515;-90
2023/08/25 11:18:57;;;;;;;10.20;5.80;;;;;;;31.37;62.49;98618.62;273606;1268;23353;-87
2023/08/25 11:24:59;;;;;;;25.50;11.10;;;;;;;31.11;62.72;98618.93;273623;1269;22316;-87
2023/08/25 11:31:04;;;;;;;10.90;6.90;;;;;;;31.14;62.93;98609.77;273588;1269;22430;-87
2023/08/25 11:37:13;;;;;;;8.20;6.30;;;;;;;31.18;62.33;98601.55;273528;1268;23688;-87
2023/08/25 11:43:15;;;;;;;7.70;6.60;;;;;;;31.16;61.76;98599.27;273708;1269;22351;-87
2023/08/25 11:49:19;;;;;;;8.70;6.40;;;;;;;30.99;61.65;98602.39;273633;1269;22505;-88
2023/08/25 11:55:21;;;;;;;9.20;7.30;;;;;;;30.75;61.47;98600.39;273580;1268;24209;-92
2023/08/25 12:01:29;;;;;;;7.90;6.20;;;;;;;30.43;62.01;98594.61;273521;1269;22441;-87
2023/08/25 12:07:32;;;;;;;8.60;6.70;;;;;;;30.16;61.90;98602.52;273733;1269;22168;-88
2023/08/25 12:13:41;;;;;;;10.60;6.90;;;;;;;30.01;62.22;98607.05;273389;1269;23104;-89
2023/08/25 12:19:44;;;;;;;8.90;7.10;;;;;;;29.86;62.41;98606.83;273212;1267;22512;-88
2023/08/25 12:25:46;;;;;;;9.80;7.70;;;;;;;29.71;63.12;98608.21;273519;1268;22358;-88
2023/08/25 12:31:48;;;;;;;9.70;7.30;;;;;;;29.59;63.16;98608.08;273519;1267;22237;-88
2023/08/25 12:37:53;;;;;;;12.10;7.90;;;;;;;29.41;63.16;98601.51;273477;1269;22383;-87
2023/08/25 12:43:54;;;;;;;14.40;7.70;;;;;;;29.37;63.14;98594.89;272395;1269;23213;-87
2023/08/25 12:50:02;;;;;;;8.80;6.90;;;;;;;29.34;63.46;98594.78;273662;1266;22109;-88
2023/08/25 12:56:04;;;;;;;9.00;7.10;;;;;;;29.26;63.26;98590.67;273653;1255;23906;-87
2023/08/25 13:02:13;;;;;;;11.40;7.50;;;;;;;29.13;63.42;98590.96;273616;1269;23548;-88
2023/08/25 13:08:22;;;;;;;12.70;7.50;;;;;;;29.05;63.02;98592.47;272428;1259;23567;-88
2023/08/25 13:14:27;;;;;;;14.80;7.80;;;;;;;28.98;63.34;98595.61;273219;1269;22553;-87
2023/08/25 13:20:28;;;;;;;11.20;7.40;;;;;;;28.97;64.24;98595.41;273238;1268;22381;-87
2023/08/25 13:26:31;;;;;;;9.00;6.90;;;;;;;28.92;64.93;98584.07;273157;1269;22625;-88
2023/08/25 13:32:33;;;;;;;17.80;7.40;;;;;;;28.88;65.61;98582.02;272972;1268;22215;-88
2023/08/25 13:38:35;;;;;;;8.60;7.10;;;;;;;28.83;65.91;98572.52;273275;1269;22258;-87
2023/08/25 13:44:41;;;;;;;11.60;7.30;;;;;;;28.73;65.38;98568.56;273595;1268;23541;-88
2023/08/25 13:50:43;;;;;;;13.90;7.50;;;;;;;28.67;66.17;98569.86;273164;1269;22927;-88
2023/08/25 14:04:41;;;;;;;10.50;7.40;;;;;;;28.63;66.58;98566.16;272736;1268;22522;-86
2023/08/25 14:34:47;;;;;;;14.40;8.00;;;;;;;28.56;66.92;98562.77;271215;1275;22187;-88
2023/08/25 14:56:36;;;;;;;14.30;7.70;;;;;;;28.55;67.73;98568.85;273619;1268;22390;-85
2023/08/25 15:02:42;;;;;;;11.10;7.30;;;;;;;28.43;67.69;98573.22;273777;1268;22317;-86
2023/08/25 15:08:44;;;;;;;7.90;6.60;;;;;;;28.40;67.92;98575.05;273748;1269;22185;-86
2023/08/25 15:14:46;;;;;;;8.40;6.60;;;;;;;28.49;67.57;98576.64;273262;1263;23913;-85
2023/08/25 15:20:56;;;;;;;8.50;6.80;;;;;;;28.55;67.71;98581.30;273584;1268;22343;-84
2023/08/25 15:26:58;;;;;;;7.70;6.30;;;;;;;28.46;68.05;98584.81;272782;1268;22340;-88
2023/08/25 15:33:02;;;;;;;10.50;6.70;;;;;;;28.33;68.25;98586.63;273342;1268;22318;-86
2023/08/25 15:39:07;;;;;;;12.60;6.60;;;;;;;28.23;68.52;98585.40;273100;1269;22256;-86
2023/08/25 15:45:09;;;;;;;11.10;5.80;;;;;;;28.15;68.86;98580.70;273195;1263;22374;-87
2023/08/25 15:51:12;;;;;;;7.50;6.30;;;;;;;28.09;68.69;98578.77;273651;1268;22288;-87
2023/08/25 15:57:13;;;;;;;10.40;6.80;;;;;;;27.97;69.50;98586.16;273481;1268;22399;-87
2023/08/25 16:03:15;;;;;;;8.80;6.80;;;;;;;27.85;70.09;98589.64;273492;1269;22284;-86
2023/08/25 16:09:21;;;;;;;10.00;6.10;;;;;;;27.77;70.52;98591.64;273647;1268;22401;-89
2023/08/25 16:15:31;;;;;;;7.00;5.90;;;;;;;27.73;71.15;98589.55;273463;1268;22256;-86
2023/08/25 16:21:33;;;;;;;10.20;6.40;;;;;;;27.66;71.72;98584.85;273293;1268;23296;-87
2023/08/25 16:27:36;;;;;;;12.50;6.60;;;;;;;27.55;72.21;98589.67;273119;1269;22741;-86
2023/08/25 16:33:39;;;;;;;9.20;5.90;;;;;;;27.40;72.40;98585.20;273349;1269;22223;-88
2023/08/25 16:39:40;;;;;;;13.30;5.90;;;;;;;27.27;72.30;98584.91;273469;1269;22538;-87
2023/08/25 16:45:42;;;;;;;10.00;5.80;;;;;;;27.17;72.36;98585.52;272966;1269;22556;-87
2023/08/25 16:51:44;;;;;;;8.60;5.90;;;;;;;27.12;72.50;98585.11;273511;1268;23066;-86
2023/08/25 17:13:47;;;;;;;8.80;5.70;;;;;;;26.95;73.75;98598.47;273775;1267;22315;-87
2023/08/25 17:19:57;;;;;;;8.80;6.50;;;;;;;26.88;74.38;98600.58;273851;1267;22397;-88
2023/08/25 17:25:59;;;;;;;8.50;6.60;;;;;;;26.74;75.25;98607.01;273710;1266;22462;-87
2023/08/25 17:32:01;;;;;;;8.90;6.40;;;;;;;26.55;75.92;98605.94;273798;1267;22391;-87
2023/08/25 17:38:03;;;;;;;7.20;6.30;;;;;;;26.36;76.54;98603.08;273696;1267;22583;-86
2023/08/25 17:44:05;;;;;;;8.00;6.10;;;;;;;26.16;77.06;98600.52;273100;1267;23187;-87
2023/08/25 17:50:07;;;;;;;9.70;6.70;;;;;;;25.99;77.32;98595.66;273613;1267;22380;-87
2023/08/25 17:56:09;;;;;;;9.70;7.00;;;;;;;25.89;77.22;98587.90;272984;1267;22559;-87
2023/08/25 18:02:11;;;;;;;12.50;7.50;;;;;;;25.86;77.34;98590.17;273720;1267;22409;-87
2023/08/25 18:08:15;;;;;;;11.40;7.40;;;;;;;25.79;78.09;98590.92;273452;1267;23058;-87
2023/08/25 18:14:16;;;;;;;7.00;6.20;;;;;;;25.73;78.27;98587.38;273814;1267;22632;-86
2023/08/25 18:20:23;;;;;;;9.60;6.60;;;;;;;25.73;78.04;98590.48;273041;1267;22379;-90
2023/08/25 18:26:34;;;;;;;;;;;;;;;25.75;77.72;98596.83;273355;1265;22481;-87
2023/08/25 18:32:36;;;;;;;9.00;6.30;;;;;;;25.72;77.50;98603.55;272812;1267;1222640;-87
2023/08/25 18:38:42;;;;;;;17.40;11.70;;;;;;;25.65;77.61;98610.02;273820;1267;22380;-87
2023/08/25 18:44:44;;;;;;;22.30;14.80;;;;;;;25.53;77.66;98606.86;273445;1266;22522;-87
2023/08/25 18:50:48;;;;;;;20.50;14.00;;;;;;;25.49;77.55;98604.20;272857;1267;23321;-88
2023/08/25 18:56:49;;;;;;;18.50;12.00;;;;;;;25.47;77.38;98610.28;272888;1267;22397;-86
2023/08/25 19:02:53;;;;;;;14.20;10.30;;;;;;;25.39;77.45;98612.83;273257;1267;22625;-88
2023/08/25 19:08:55;;;;;;;13.80;9.10;;;;;;;25.23;77.73;98612.38;272579;1267;22458;-87
2023/08/25 19:14:57;;;;;;;12.10;8.30;;;;;;;25.09;78.15;98612.71;273356;1266;23011;-89
2023/08/25 19:21:02;;;;;;;11.60;7.50;;;;;;;24.92;78.47;98607.52;273531;1267;22541;-87
2023/08/25 19:27:11;;;;;;;12.10;8.10;;;;;;;24.83;78.96;98611.42;274041;1269;22334;-89
2023/08/25 19:33:14;;;;;;;10.60;7.10;;;;;;;24.68;79.44;98614.32;273841;1267;23202;-87
2023/08/25 19:39:17;;;;;;;10.50;7.80;;;;;;;24.49;79.84;98616.97;273696;1256;22198;-88
2023/08/25 19:45:20;;;;;;;14.30;7.60;;;;;;;24.33;80.67;98616.67;273693;1267;22126;-87
2023/08/25 19:51:22;;;;;;;13.40;7.30;;;;;;;24.25;81.08;98615.93;273054;1267;22151;-87
2023/08/25 19:57:24;;;;;;;7.20;5.40;;;;;;;24.07;81.43;98615.27;273550;1267;23095;-88
2023/08/25 20:03:26;;;;;;;9.50;5.70;;;;;;;23.93;82.26;98612.98;273716;1259;22210;-88
2023/08/25 20:09:31;;;;;;;12.20;7.40;;;;;;;23.78;82.83;98614.61;273853;1267;22981;-87
2023/08/25 20:15:36;;;;;;;16.10;9.40;;;;;;;23.60;83.80;98613.35;273684;1267;22426;-88
2023/08/25 20:21:38;;;;;;;16.00;10.80;;;;;;;23.48;85.03;98617.39;272958;1269;22379;-87
2023/08/25 20:27:40;;;;;;;13.00;9.20;;;;;;;23.41;85.89;98621.82;273223;1259;24377;-87
2023/08/25 20:33:43;;;;;;;17.30;9.50;;;;;;;23.32;86.39;98622.30;273695;1267;22444;-86
2023/08/25 20:39:48;;;;;;;13.50;9.60;;;;;;;23.22;87.24;98621.14;273189;1267;22547;-88
2023/08/25 20:46:13;;;;;;;12.90;9.80;;;;;;;23.04;87.98;98617.44;273254;1267;22504;-86
2023/08/25 20:52:15;;;;;;;11.10;8.10;;;;;;;22.92;88.99;98614.73;273092;1267;22385;-87
2023/08/25 20:58:23;;;;;;;14.10;8.40;;;;;;;22.83;89.45;98620.98;273668;1267;22220;-88
2023/08/25 21:04:25;;;;;;;13.50;8.80;;;;;;;22.73;89.85;98632.91;273152;1267;22170;-87
2023/08/25 21:10:56;;;;;;;12.60;8.30;;;;;;;22.58;90.57;98635.63;273550;1267;22467;-87
2023/08/25 21:17:04;;;;;;;8.90;7.80;;;;;;;22.56;90.96;98631.57;273070;1267;22536;-88
2023/08/25 21:23:06;;;;;;;11.60;7.50;;;;;;;22.55;91.64;98632.04;272827;1267;22743;-87
2023/08/25 21:29:12;;;;;;;17.40;8.30;;;;;;;22.50;92.35;98643.95;274086;1268;22322;-87
2023/08/25 21:35:17;;;;;;;12.50;7.90;;;;;;;22.46;92.83;98657.81;272774;1269;22536;-86
2023/08/25 21:41:19;;;;;;;9.40;8.10;;;;;;;22.35;92.89;98651.65;272879;1267;22197;-86
2023/08/25 21:47:21;;;;;;;11.30;8.00;;;;;;;22.19;93.08;98651.98;273011;1267;22210;-87
2023/08/25 21:53:28;;;;;;;11.80;8.30;;;;;;;22.07;93.22;98652.80;273212;1267;23071;-87
2023/08/25 21:59:36;;;;;;;11.50;8.10;;;;;;;21.92;93.90;98644.43;273337;1267;22387;-87
2023/08/25 22:05:43;;;;;;;13.60;8.30;;;;;;;21.86;94.60;98646.32;273437;1264;22449;-87
2023/08/25 22:11:48;;;;;;;11.00;7.50;;;;;;;21.83;95.12;98644.80;272998;1267;22321;-90
2023/08/25 22:17:50;;;;;;;9.70;7.90;;;;;;;21.72;95.73;98647.80;272892;1267;22491;-87
2023/08/25 22:23:54;;;;;;;13.10;7.30;;;;;;;21.66;96.31;98653.14;272745;1267;22668;-88
2023/08/25 22:29:58;;;;;;;10.00;7.30;;;;;;;21.63;96.93;98660.73;272484;1266;22552;-87
2023/08/25 22:36:01;;;;;;;9.10;7.50;;;;;;;21.65;97.28;98662.48;272777;1267;22463;-86
2023/08/25 22:42:14;;;;;;;11.00;7.90;;;;;;;21.65;97.77;98671.33;272690;1267;23459;-87
2023/08/25 22:48:21;;;;;;;9.10;6.60;;;;;;;21.66;97.98;98679.70;273444;1267;22429;-86
2023/08/25 22:54:29;;;;;;;10.00;7.10;;;;;;;21.67;98.06;98675.30;272411;1267;22500;-87
2023/08/25 23:00:34;;;;;;;13.40;7.80;;;;;;;21.70;98.64;98676.05;273221;1267;24973;-88
2023/08/25 23:07:00;;;;;;;;;;;;;;;;;;;;;
2023/08/25 23:13:17;;;;;;;8.80;6.50;;;;;;;21.84;97.85;98641.89;272443;1267;23705;-88
2023/08/25 23:19:29;;;;;;;8.80;7.10;;;;;;;21.94;98.38;98645.16;273221;1266;22543;-87
2023/08/25 23:25:33;;;;;;;12.50;6.80;;;;;;;21.76;98.59;98649.71;273330;1269;22426;-87
2023/08/25 23:31:35;;;;;;;17.00;7.30;;;;;;;21.66;99.12;98626.13;272776;1267;23371;-87
2023/08/25 23:37:45;;;;;;;16.00;8.10;;;;;;;21.63;99.33;98609.09;272970;1270;22203;-88
2023/08/25 23:43:59;;;;;;;8.50;7.20;;;;;;;21.76;99.86;98608.05;271725;1267;22988;-88
2023/08/25 23:50:05;;;;;;;12.00;7.00;;;;;;;21.76;99.49;98618.14;271821;1266;22543;-88
2023/08/25 23:56:15;;;;;;;11.30;7.00;;;;;;;21.66;99.76;98610.54;272534;1268;22537;-86
